コロンボ の空港の天気 - METARとTAF

バンダラナイケ国際空港 ( VCBI / CMB ) - スリランカ コロンボ
飛行場実況気象(Metar)
観測時間04/25 13:40 IST (04/25 08:10 UTC)
風向・風速西北西 3m/s
視程10km以上
天気現象
全天の4割程度の雲 雲底高度 550m
気温32℃
湿度67%
気圧1009hPa
METARVCBI 250810Z 30006KT 9999 SCT018 32/25 Q1009 NOSIG
過去の天気等 Google飛行場航空写真 Wunderground天気予報

過去48時間のMETAR

飛行場予報(TAF)
発表時間: 4/25 10:30 IST (4/25 05:00 UTC)
予報対象時間: 25日11時 IST ~ 26日17時 IST
風向・風速西 4m/s
視程10km以上
少しの雲 雲底高度 550m
25日17時 IST ~ 25日21時 IST に 確率 40% で一時的に
視程6000m
25日17時 IST ~ 25日19時 IST に徐々に
風向・風速不定 3m/s
26日9時 IST ~ 26日11時 IST に徐々に
風向・風速西 4m/s
TAF VCBI 250500Z 2506/2612 27008KT 9999 FEW018 TX33/2507Z TN25/2600Z
PROB40 TEMPO 2512/2516 6000 -TSRA/SHRA SCT016 FEW020CB
BECMG 2512/2514 VRB05KT
BECMG 2604/2606 27008KT